createdAt,value
2022-11-17T00:02:26.935Z,18.08
2022-11-17T00:04:59.608Z,20.02
2022-11-17T00:07:32.381Z,19.33
2022-11-17T00:10:06.003Z,18.35
2022-11-17T00:12:54.265Z,18.02
2022-11-17T00:15:26.797Z,19.77
2022-11-17T00:18:15.644Z,19.42
2022-11-17T00:21:04.118Z,19.90
2022-11-17T00:23:53.558Z,19.13
2022-11-17T00:26:29.148Z,17.83
2022-11-17T00:29:05.207Z,17.50
2022-11-17T00:31:53.681Z,15.23
2022-11-17T00:34:26.364Z,16.40
2022-11-17T00:36:58.947Z,17.17
2022-11-17T00:39:31.743Z,18.70
2022-11-17T00:42:04.826Z,18.73
2022-11-17T00:44:37.536Z,18.05
2022-11-17T00:47:10.095Z,16.23
2022-11-17T00:49:42.672Z,16.13
2022-11-17T00:52:15.414Z,15.48
2022-11-17T00:54:48.160Z,16.75
2022-11-17T00:57:20.817Z,15.88
2022-11-17T00:59:53.404Z,16.13
2022-11-17T01:02:26.076Z,14.75
2022-11-17T01:04:58.685Z,14.82
2022-11-17T01:07:31.610Z,14.30
2022-11-17T01:10:04.770Z,14.13
2022-11-17T01:12:37.485Z,14.00
2022-11-17T01:15:10.812Z,15.02
2022-11-17T01:17:43.634Z,12.82
2022-11-17T01:20:16.315Z,14.25
2022-11-17T01:22:49.139Z,13.48
2022-11-17T01:25:21.642Z,13.82
2022-11-17T01:27:54.309Z,13.35
2022-11-17T01:30:26.846Z,13.77
2022-11-17T01:32:59.451Z,13.63
2022-11-17T01:35:34.802Z,12.43
2022-11-17T01:40:39.990Z,11.55
2022-11-17T01:43:12.542Z,12.00
2022-11-17T01:45:45.662Z,11.38
2022-11-17T01:48:18.329Z,10.15
2022-11-17T01:50:52.202Z,10.73
2022-11-17T01:53:26.593Z,9.75
2022-11-17T01:56:05.572Z,9.77
2022-11-17T01:58:44.373Z,8.38
2022-11-17T02:01:17.122Z,7.65
2022-11-17T02:03:51.858Z,9.10
2022-11-17T02:06:33.725Z,8.73
2022-11-17T02:09:06.609Z,7.80
2022-11-17T02:11:39.373Z,8.95
2022-11-17T02:14:12.102Z,9.02
2022-11-17T02:16:44.931Z,8.88
2022-11-17T02:19:17.821Z,7.72
2022-11-17T02:21:57.508Z,7.25
2022-11-17T02:24:45.675Z,7.07
2022-11-17T02:27:49.698Z,5.90
2022-11-17T02:30:23.844Z,6.03
2022-11-17T02:33:17.313Z,6.25
2022-11-17T02:35:58.755Z,5.75
2022-11-17T02:38:54.788Z,5.85
2022-11-17T02:44:08.559Z,5.82
2022-11-17T02:46:55.756Z,5.45
2022-11-17T02:49:36.078Z,5.35
2022-11-17T02:52:09.710Z,5.20
2022-11-17T02:54:42.443Z,5.50
2022-11-17T02:57:32.260Z,5.18
2022-11-17T03:00:10.302Z,5.35
2022-11-17T03:02:58.684Z,5.60
2022-11-17T03:05:40.723Z,5.22
2022-11-17T03:08:14.044Z,5.32
2022-11-17T03:11:03.726Z,5.43
2022-11-17T03:13:53.651Z,5.30
2022-11-17T03:16:32.738Z,5.75
2022-11-17T03:19:14.801Z,6.22
2022-11-17T03:22:18.510Z,6.28
2022-11-17T03:24:58.453Z,5.68
2022-11-17T03:27:37.572Z,6.40
2022-11-17T03:30:12.238Z,7.20
2022-11-17T03:32:50.726Z,8.00
2022-11-17T03:35:29.218Z,7.03
2022-11-17T03:38:08.527Z,7.90
2022-11-17T03:40:47.049Z,7.60
2022-11-17T03:43:21.982Z,6.60
2022-11-17T03:45:59.352Z,7.22
2022-11-17T03:48:52.486Z,8.02
2022-11-17T03:51:28.244Z,8.05
2022-11-17T03:54:01.643Z,9.07
2022-11-17T03:56:50.902Z,9.80
2022-11-17T03:59:30.009Z,8.18
2022-11-17T04:02:02.998Z,8.82
2022-11-17T04:04:50.790Z,9.20
2022-11-17T04:07:23.458Z,8.75
2022-11-17T04:09:56.205Z,8.05
2022-11-17T04:12:44.796Z,8.93
2022-11-17T04:15:33.192Z,8.77
2022-11-17T04:18:06.830Z,8.70
2022-11-17T04:20:39.532Z,10.73
2022-11-17T04:23:15.049Z,11.60
2022-11-17T04:26:06.072Z,11.85
2022-11-17T04:28:42.108Z,10.93
2022-11-17T04:31:18.036Z,10.63
2022-11-17T04:33:54.823Z,10.20
2022-11-17T04:36:34.771Z,11.93
2022-11-17T04:39:07.372Z,11.00
2022-11-17T04:41:55.909Z,12.60
2022-11-17T04:44:31.264Z,11.05
2022-11-17T04:47:04.651Z,11.90
2022-11-17T04:49:37.272Z,10.98
2022-11-17T04:52:09.787Z,11.38
2022-11-17T04:54:42.509Z,11.65
2022-11-17T04:57:15.081Z,13.10
2022-11-17T04:59:47.625Z,12.45
2022-11-17T05:02:20.244Z,11.68
2022-11-17T05:05:00.678Z,12.35
2022-11-17T05:07:33.467Z,12.18
2022-11-17T05:10:06.991Z,12.68
2022-11-17T05:12:55.037Z,12.90
2022-11-17T05:15:43.378Z,12.90
2022-11-17T05:18:15.928Z,13.50
2022-11-17T05:20:48.539Z,13.63
2022-11-17T05:23:36.758Z,33.10
2022-11-17T05:26:09.532Z,15.95
2022-11-17T05:28:42.654Z,13.20
2022-11-17T05:31:16.277Z,13.27
2022-11-17T05:33:48.954Z,16.27
2022-11-17T05:36:23.542Z,15.73
2022-11-17T05:38:56.751Z,15.10
2022-11-17T05:41:29.740Z,15.20
2022-11-17T05:44:02.485Z,15.43
2022-11-17T05:46:35.075Z,15.70
2022-11-17T05:49:07.794Z,14.70
2022-11-17T05:51:40.416Z,14.35
2022-11-17T05:54:13.094Z,14.98
2022-11-17T05:57:04.106Z,15.15
2022-11-17T05:59:46.969Z,15.35
2022-11-17T06:02:25.493Z,16.60
2022-11-17T06:04:58.220Z,15.88
2022-11-17T06:07:31.152Z,15.30
2022-11-17T06:10:04.188Z,16.05
2022-11-17T06:12:36.787Z,15.10
2022-11-17T06:15:10.263Z,15.15
2022-11-17T06:17:51.974Z,15.05
2022-11-17T06:20:30.144Z,15.73
2022-11-17T06:23:06.737Z,16.73
2022-11-17T06:25:40.221Z,17.50
2022-11-17T06:28:17.585Z,17.98
2022-11-17T06:30:50.895Z,16.40
2022-11-17T06:33:24.528Z,17.15
2022-11-17T06:36:00.528Z,18.27
2022-11-17T06:38:36.181Z,18.80
2022-11-17T06:41:11.868Z,19.25
2022-11-17T06:43:45.046Z,18.95
2022-11-17T06:46:20.732Z,20.42
2022-11-17T06:48:55.383Z,19.70
2022-11-17T06:51:29.377Z,19.20
2022-11-17T06:54:02.306Z,20.52
2022-11-17T06:56:35.929Z,21.88
2022-11-17T06:59:08.952Z,20.27
2022-11-17T07:01:41.512Z,21.00
2022-11-17T07:04:14.345Z,20.55
2022-11-17T07:06:47.218Z,20.58
2022-11-17T07:09:20.565Z,20.40
2022-11-17T07:11:53.415Z,22.27
2022-11-17T07:14:26.140Z,27.38
2022-11-17T07:16:58.716Z,27.38
2022-11-17T07:19:31.386Z,21.80
2022-11-17T07:22:05.175Z,22.48
2022-11-17T07:24:37.855Z,38.08
2022-11-17T07:27:10.637Z,23.08
2022-11-17T07:29:43.436Z,22.27
2022-11-17T07:32:16.300Z,22.42
2022-11-17T07:34:49.335Z,23.90
2022-11-17T07:37:22.228Z,24.85
2022-11-17T07:39:55.191Z,26.10
2022-11-17T07:42:27.930Z,24.95
2022-11-17T07:45:00.810Z,24.52
2022-11-17T07:47:33.478Z,24.45
2022-11-17T07:50:06.956Z,22.33
2022-11-17T07:52:41.600Z,21.63
2022-11-17T07:55:14.743Z,16.70
2022-11-17T07:57:47.479Z,25.23
2022-11-17T08:00:20.506Z,20.05
2022-11-17T08:02:53.327Z,20.30
2022-11-17T08:05:30.931Z,19.30
2022-11-17T08:08:04.077Z,19.08
2022-11-17T08:10:37.354Z,19.02
2022-11-17T08:13:11.773Z,19.17
2022-11-17T08:15:44.704Z,18.00
2022-11-17T08:18:17.770Z,16.05
2022-11-17T08:20:50.526Z,16.40
2022-11-17T08:23:23.148Z,16.73
2022-11-17T08:25:56.110Z,17.25
2022-11-17T08:28:28.825Z,16.70
2022-11-17T08:31:04.133Z,17.30
2022-11-17T08:33:36.683Z,16.90
2022-11-17T08:36:11.279Z,16.90
2022-11-17T08:38:44.685Z,17.50
2022-11-17T08:41:17.486Z,17.45
2022-11-17T08:43:52.201Z,16.13
2022-11-17T08:46:27.319Z,14.23
2022-11-17T08:49:01.568Z,14.30
2022-11-17T08:51:34.352Z,15.18
2022-11-17T08:54:07.181Z,14.88
2022-11-17T08:56:40.107Z,14.60
2022-11-17T08:59:14.564Z,14.13
2022-11-17T09:01:47.292Z,15.10
2022-11-17T09:04:20.224Z,15.40
2022-11-17T09:06:53.201Z,16.80
2022-11-17T09:09:26.235Z,15.40
2022-11-17T09:11:59.872Z,15.43
2022-11-17T09:14:32.722Z,15.85
2022-11-17T09:17:05.464Z,19.15
2022-11-17T09:19:38.180Z,16.00
2022-11-17T09:22:10.937Z,14.50
2022-11-17T09:24:43.655Z,34.97
2022-11-17T09:27:16.531Z,16.30
2022-11-17T09:29:49.246Z,25.23
2022-11-17T09:32:21.937Z,15.98
2022-11-17T09:34:54.852Z,16.77
2022-11-17T09:37:28.855Z,15.57
2022-11-17T09:40:01.629Z,16.55
2022-11-17T09:42:41.405Z,21.27
2022-11-17T09:45:23.969Z,15.98
2022-11-17T09:48:38.770Z,16.05
2022-11-17T09:51:08.655Z,16.38
2022-11-17T09:53:49.108Z,16.95
2022-11-17T09:56:22.098Z,16.58
2022-11-17T09:59:01.885Z,18.02
2022-11-17T10:01:34.858Z,18.60
2022-11-17T10:04:14.064Z,21.23
2022-11-17T10:06:50.180Z,21.33
2022-11-17T10:09:42.035Z,18.55
2022-11-17T10:12:18.436Z,20.52
2022-11-17T10:14:53.166Z,19.52
2022-11-17T10:17:26.450Z,19.40
2022-11-17T10:20:01.270Z,22.65
2022-11-17T10:22:36.641Z,22.42
2022-11-17T10:27:57.641Z,21.25
2022-11-17T10:30:31.080Z,21.40
2022-11-17T10:33:04.378Z,22.17
2022-11-17T10:35:37.210Z,21.08
2022-11-17T10:38:22.074Z,22.50
2022-11-17T10:40:55.844Z,22.60
2022-11-17T10:43:33.316Z,22.55
2022-11-17T10:46:15.265Z,19.73
2022-11-17T10:49:01.042Z,21.70
2022-11-17T10:51:35.833Z,21.80
2022-11-17T10:54:24.113Z,21.27
2022-11-17T10:57:00.476Z,18.95
2022-11-17T10:59:43.997Z,19.58
2022-11-17T11:02:35.472Z,18.70
2022-11-17T11:05:15.595Z,20.63
2022-11-17T11:07:48.642Z,22.25
2022-11-17T11:10:37.255Z,24.05
2022-11-17T11:13:26.890Z,23.65
2022-11-17T11:16:01.964Z,24.48
2022-11-17T11:18:35.420Z,25.15
2022-11-17T11:21:21.206Z,23.67
2022-11-17T11:24:10.710Z,23.65
2022-11-17T11:26:57.661Z,24.60
2022-11-17T11:29:56.874Z,23.35
2022-11-17T11:32:54.609Z,23.20
2022-11-17T11:35:46.425Z,23.60
2022-11-17T11:38:35.854Z,23.67
2022-11-17T11:41:25.837Z,24.08
2022-11-17T11:44:20.103Z,24.33
2022-11-17T11:47:03.914Z,23.23
2022-11-17T11:50:06.396Z,23.65
2022-11-17T11:52:45.493Z,23.15
2022-11-17T11:55:23.512Z,24.55
2022-11-17T11:58:06.588Z,23.55
2022-11-17T12:00:42.276Z,21.15
2022-11-17T12:03:21.720Z,22.50
2022-11-17T12:06:27.217Z,27.27
2022-11-17T12:09:18.136Z,23.15
2022-11-17T12:12:01.139Z,21.90
2022-11-17T12:14:38.452Z,21.63
2022-11-17T12:17:24.463Z,23.05
2022-11-17T12:20:04.601Z,18.08
2022-11-17T12:22:54.892Z,19.50
2022-11-17T12:25:31.449Z,19.33
2022-11-17T12:28:29.816Z,20.50
2022-11-17T12:31:10.192Z,20.13
2022-11-17T12:33:53.045Z,20.08
2022-11-17T12:36:33.986Z,19.60
2022-11-17T12:39:29.314Z,19.13
2022-11-17T12:42:06.733Z,20.27
2022-11-17T12:44:50.965Z,19.15
2022-11-17T12:47:27.557Z,22.00
2022-11-17T12:50:16.911Z,23.23
2022-11-17T12:53:20.905Z,28.40
2022-11-17T12:56:10.404Z,23.17
2022-11-17T12:58:59.236Z,21.13
2022-11-17T13:01:55.033Z,26.55
2022-11-17T13:04:38.113Z,24.25
2022-11-17T13:07:21.526Z,22.33
2022-11-17T13:09:57.617Z,24.45
2022-11-17T13:12:33.550Z,27.13
2022-11-17T13:15:07.535Z,25.85
2022-11-17T13:17:43.495Z,22.48
2022-11-17T13:20:28.196Z,24.25
2022-11-17T13:23:07.343Z,24.40
2022-11-17T13:25:40.096Z,24.27
2022-11-17T13:28:29.594Z,26.52
2022-11-17T13:31:02.741Z,24.58
2022-11-17T13:33:40.163Z,25.08
2022-11-17T13:36:20.881Z,24.90
2022-11-17T13:38:57.586Z,23.73
2022-11-17T13:41:38.303Z,23.13
2022-11-17T13:44:15.731Z,23.10
2022-11-17T13:46:48.703Z,20.42
2022-11-17T13:49:38.437Z,23.77
2022-11-17T13:52:35.257Z,22.90
2022-11-17T13:55:20.341Z,23.52
2022-11-17T13:58:00.592Z,23.52
2022-11-17T14:00:35.066Z,24.83
2022-11-17T14:03:29.290Z,25.23
2022-11-17T14:06:04.084Z,27.50
2022-11-17T14:08:38.160Z,28.70
2022-11-17T14:11:11.451Z,29.85
2022-11-17T14:13:50.130Z,29.13
2022-11-17T14:16:29.371Z,29.42
2022-11-17T14:19:07.097Z,28.65
2022-11-17T14:22:21.406Z,30.50
2022-11-17T14:24:56.356Z,28.63
2022-11-17T14:27:30.793Z,26.50
2022-11-17T14:30:05.788Z,27.83
2022-11-17T14:32:42.791Z,29.10
2022-11-17T14:37:55.542Z,29.30
2022-11-17T14:40:29.636Z,29.27
2022-11-17T14:43:03.178Z,28.23
2022-11-17T14:45:36.021Z,29.15
2022-11-17T14:48:13.523Z,29.88
2022-11-17T14:51:00.323Z,29.67
2022-11-17T14:53:33.576Z,32.05
2022-11-17T14:56:09.505Z,30.48
2022-11-17T14:58:42.477Z,34.17
2022-11-17T15:01:25.095Z,33.17
2022-11-17T15:04:15.461Z,30.85
2022-11-17T15:06:54.395Z,36.28
2022-11-17T15:09:27.169Z,36.03
2022-11-17T15:12:00.456Z,36.40
2022-11-17T15:14:33.284Z,37.28
2022-11-17T15:17:11.280Z,36.47
2022-11-17T15:19:47.447Z,35.47
2022-11-17T15:22:21.062Z,36.05
2022-11-17T15:24:53.904Z,37.17
2022-11-17T15:27:26.858Z,35.45
2022-11-17T15:30:00.192Z,40.10
2022-11-17T15:32:33.636Z,41.13
2022-11-17T15:35:08.376Z,42.17
2022-11-17T15:37:41.188Z,38.85
2022-11-17T15:40:19.077Z,38.08
2022-11-17T15:42:55.549Z,38.15
2022-11-17T15:45:29.328Z,38.58
2022-11-17T15:48:03.023Z,39.17
2022-11-17T15:50:36.781Z,45.97
2022-11-17T15:53:09.548Z,42.75
2022-11-17T15:55:42.859Z,38.10
2022-11-17T15:58:16.900Z,41.95
2022-11-17T16:00:49.970Z,40.53
2022-11-17T16:03:22.697Z,41.92
2022-11-17T16:05:55.579Z,42.95
2022-11-17T16:08:28.326Z,41.38
2022-11-17T16:11:01.321Z,38.90
2022-11-17T16:13:34.212Z,37.45
2022-11-17T16:16:08.305Z,38.28
2022-11-17T16:18:41.099Z,37.40
2022-11-17T16:21:15.145Z,62.88
2022-11-17T16:23:51.642Z,60.40
2022-11-17T16:26:26.588Z,51.00
2022-11-17T16:29:00.989Z,37.00
2022-11-17T16:31:36.200Z,43.15
2022-11-17T16:34:15.754Z,40.33
2022-11-17T16:36:48.420Z,40.40
2022-11-17T16:39:21.213Z,36.97
2022-11-17T16:41:55.378Z,73.82
2022-11-17T16:44:28.040Z,44.90
2022-11-17T16:47:00.719Z,44.78
2022-11-17T16:49:35.619Z,54.13
2022-11-17T16:52:08.592Z,46.55
2022-11-17T16:54:43.279Z,48.40
2022-11-17T16:57:18.253Z,47.28
2022-11-17T16:59:52.880Z,44.65
2022-11-17T17:02:26.305Z,43.13
2022-11-17T17:04:58.936Z,42.75
2022-11-17T17:07:33.049Z,53.20
2022-11-17T17:10:08.752Z,45.50
2022-11-17T17:15:14.589Z,42.15
2022-11-17T17:17:47.453Z,39.38
2022-11-17T17:20:20.825Z,46.58
2022-11-17T17:22:56.854Z,49.60
2022-11-17T17:25:33.932Z,43.88
2022-11-17T17:28:06.591Z,45.67
2022-11-17T17:30:41.258Z,46.42
2022-11-17T17:33:15.028Z,55.22
2022-11-17T17:35:47.982Z,57.97
2022-11-17T17:38:20.863Z,50.65
2022-11-17T17:40:53.595Z,43.10
2022-11-17T17:43:26.103Z,45.65
2022-11-17T17:46:02.954Z,45.90
2022-11-17T17:48:37.366Z,76.28
2022-11-17T17:51:14.585Z,57.78
2022-11-17T17:53:51.381Z,45.95
2022-11-17T17:56:25.060Z,54.95
2022-11-17T17:58:58.949Z,53.08
2022-11-17T18:01:34.989Z,66.13
2022-11-17T18:04:15.334Z,64.78
2022-11-17T18:06:49.223Z,61.58
2022-11-17T18:09:22.501Z,52.05
2022-11-17T18:11:55.675Z,76.05
2022-11-17T18:14:28.657Z,55.03
2022-11-17T18:17:01.458Z,47.55
2022-11-17T18:19:34.274Z,48.47
2022-11-17T18:22:07.238Z,51.47
2022-11-17T18:24:40.059Z,48.13
2022-11-17T18:27:12.704Z,48.47
2022-11-17T18:29:46.896Z,48.72
2022-11-17T18:32:19.819Z,47.28
2022-11-17T18:34:52.753Z,49.20
2022-11-17T18:37:25.508Z,50.38
2022-11-17T18:39:58.294Z,55.80
2022-11-17T18:42:32.910Z,53.75
2022-11-17T18:45:05.904Z,50.45
2022-11-17T18:47:38.752Z,51.75
2022-11-17T18:50:11.482Z,50.70
2022-11-17T18:52:44.241Z,49.67
2022-11-17T18:55:17.104Z,53.65
2022-11-17T18:57:49.820Z,52.25
2022-11-17T19:00:23.475Z,52.50
2022-11-17T19:02:56.266Z,52.70
2022-11-17T19:05:29.001Z,46.63
2022-11-17T19:08:01.798Z,45.13
2022-11-17T19:10:34.599Z,47.55
2022-11-17T19:13:07.423Z,52.90
2022-11-17T19:15:40.209Z,53.78
2022-11-17T19:18:13.155Z,50.88
2022-11-17T19:20:46.384Z,51.42
2022-11-17T19:23:19.481Z,51.25
2022-11-17T19:25:52.101Z,52.72
2022-11-17T19:28:24.871Z,58.42
2022-11-17T19:31:02.378Z,53.35
2022-11-17T19:33:36.766Z,60.67
2022-11-17T19:36:13.952Z,55.63
2022-11-17T19:38:50.838Z,57.22
2022-11-17T19:41:26.369Z,64.93
2022-11-17T19:44:02.118Z,53.83
2022-11-17T19:46:36.558Z,56.30
2022-11-17T19:49:12.800Z,57.13
2022-11-17T19:51:45.554Z,53.75
2022-11-17T19:54:18.229Z,57.15
2022-11-17T19:56:50.881Z,54.65
2022-11-17T19:59:23.518Z,55.45
2022-11-17T20:01:56.423Z,55.53
2022-11-17T20:04:29.314Z,66.60
2022-11-17T20:07:01.946Z,56.63
2022-11-17T20:09:35.920Z,55.70
2022-11-17T20:12:08.657Z,53.40
2022-11-17T20:14:41.447Z,54.72
2022-11-17T20:17:14.296Z,56.88
2022-11-17T20:19:46.987Z,59.97
2022-11-17T20:22:19.488Z,63.85
2022-11-17T20:24:52.623Z,60.92
2022-11-17T20:27:26.001Z,57.80
2022-11-17T20:29:59.419Z,57.55
2022-11-17T20:32:32.841Z,56.67
2022-11-17T20:35:06.570Z,62.33
2022-11-17T20:37:39.218Z,64.85
2022-11-17T20:40:12.488Z,86.70
2022-11-17T20:42:45.391Z,62.88
2022-11-17T20:45:18.323Z,60.30
2022-11-17T20:47:51.340Z,58.00
2022-11-17T20:50:24.016Z,58.90
2022-11-17T20:52:56.642Z,52.53
2022-11-17T20:55:29.194Z,58.72
2022-11-17T20:58:01.788Z,59.65
2022-11-17T21:00:35.392Z,61.78
2022-11-17T21:03:08.553Z,58.58
2022-11-17T21:05:41.412Z,56.00
2022-11-17T21:08:14.056Z,54.15
2022-11-17T21:10:46.613Z,51.58
2022-11-17T21:13:19.348Z,54.92
2022-11-17T21:16:12.444Z,52.67
2022-11-17T21:18:47.431Z,59.28
2022-11-17T21:21:20.389Z,57.65
2022-11-17T21:23:54.552Z,59.35
2022-11-17T21:26:28.183Z,57.17
2022-11-17T21:29:06.194Z,54.40
2022-11-17T21:31:40.274Z,57.65
2022-11-17T21:34:16.924Z,56.25
2022-11-17T21:36:49.658Z,55.67
2022-11-17T21:39:22.420Z,56.08
2022-11-17T21:41:55.104Z,59.30
2022-11-17T21:44:28.002Z,62.13
2022-11-17T21:47:01.012Z,63.72
2022-11-17T21:49:33.955Z,66.95
2022-11-17T21:52:07.060Z,68.13
2022-11-17T21:54:39.721Z,92.22
2022-11-17T21:57:12.543Z,68.57
2022-11-17T21:59:46.975Z,67.20
2022-11-17T22:02:19.795Z,67.40
2022-11-17T22:04:52.578Z,70.57
2022-11-17T22:07:25.224Z,69.50
2022-11-17T22:09:57.792Z,71.22
2022-11-17T22:12:30.469Z,69.72
2022-11-17T22:15:07.197Z,66.30
2022-11-17T22:17:43.496Z,65.40
2022-11-17T22:20:16.681Z,65.00
2022-11-17T22:22:54.626Z,69.18
2022-11-17T22:28:20.171Z,71.68
2022-11-17T22:30:53.465Z,72.20
2022-11-17T22:33:26.264Z,74.07
2022-11-17T22:36:00.966Z,72.93
2022-11-17T22:38:33.998Z,73.07
2022-11-17T22:41:08.189Z,76.45
2022-11-17T22:43:40.847Z,72.13
2022-11-17T22:46:13.611Z,74.32
2022-11-17T22:48:46.693Z,75.43
2022-11-17T22:51:35.764Z,76.20
2022-11-17T22:54:09.029Z,78.03
2022-11-17T22:56:41.832Z,78.10
2022-11-17T22:59:14.648Z,75.03
2022-11-17T23:01:47.794Z,73.95
2022-11-17T23:04:20.490Z,72.32
2022-11-17T23:06:53.183Z,69.78
2022-11-17T23:09:25.953Z,73.03
2022-11-17T23:11:58.647Z,74.15
2022-11-17T23:14:31.264Z,68.72
2022-11-17T23:17:04.114Z,73.20
2022-11-17T23:19:36.695Z,74.40
2022-11-17T23:22:09.351Z,73.55
2022-11-17T23:24:42.005Z,70.38
2022-11-17T23:27:14.632Z,72.95
2022-11-17T23:29:47.286Z,71.95
2022-11-17T23:32:20.301Z,70.93
2022-11-17T23:34:52.999Z,75.78
2022-11-17T23:37:25.600Z,73.70
2022-11-17T23:39:58.285Z,70.47
2022-11-17T23:42:32.612Z,73.90
2022-11-17T23:45:07.662Z,72.97
2022-11-17T23:47:40.948Z,69.10
2022-11-17T23:50:13.783Z,69.15
2022-11-17T23:52:46.418Z,71.90
2022-11-17T23:55:19.251Z,69.03
2022-11-17T23:57:53.403Z,68.15
